Time;durP1;ratioP1;P1;durP2;ratioP2;P2;SDS_P1;SDS_P2;PMS_P1;PMS_P2;Temp;Humidity;BMP_temperature;BMP_pressure;BME280_temperature;BME280_humidity;BME280_pressure;Samples;Min_cycle;Max_cycle;Signal;HPM_P1;HPM_P2
2021/08/20 00:00:50;;;;;;;8.25;6.15;;;20.90;60.90;;;;;;5056750;28;20112;-37
2021/08/20 00:03:16;;;;;;;7.82;6.97;;;20.90;60.20;;;;;;5056638;28;20036;-37
2021/08/20 00:05:41;;;;;;;7.32;6.25;;;20.90;60.40;;;;;;5056917;28;20025;-37
2021/08/20 00:08:07;;;;;;;7.28;5.70;;;20.90;60.40;;;;;;5056775;28;20033;-36
2021/08/20 00:10:33;;;;;;;8.25;5.93;;;20.90;60.60;;;;;;5056836;28;20392;-36
2021/08/20 00:12:59;;;;;;;8.02;7.05;;;20.80;60.30;;;;;;5056828;28;20021;-36
2021/08/20 00:15:25;;;;;;;8.30;7.05;;;20.80;60.40;;;;;;5056294;28;20462;-36
2021/08/20 00:17:51;;;;;;;6.30;5.60;;;20.80;60.30;;;;;;5056443;28;20029;-37
2021/08/20 00:20:16;;;;;;;8.05;5.55;;;20.80;60.40;;;;;;5056423;28;20060;-37
2021/08/20 00:22:42;;;;;;;9.82;6.25;;;20.80;60.40;;;;;;5056653;28;20423;-37
2021/08/20 00:25:08;;;;;;;7.20;5.57;;;20.80;60.40;;;;;;5056742;28;20025;-36
2021/08/20 00:27:34;;;;;;;7.45;6.10;;;20.80;60.30;;;;;;5056034;28;20033;-36
2021/08/20 00:30:00;;;;;;;9.00;6.93;;;20.80;60.50;;;;;;5056488;28;20035;-37
2021/08/20 00:32:26;;;;;;;7.47;6.55;;;20.80;60.60;;;;;;5056036;28;20044;-36
2021/08/20 00:34:51;;;;;;;7.82;6.03;;;20.80;60.70;;;;;;5056530;28;20061;-36
2021/08/20 00:37:17;;;;;;;9.43;6.30;;;20.80;60.70;;;;;;5056220;28;20421;-36
2021/08/20 00:39:43;;;;;;;9.48;6.20;;;20.80;60.80;;;;;;5056499;28;20021;-36
2021/08/20 00:42:08;;;;;;;7.60;6.82;;;20.80;60.90;;;;;;5056209;28;20451;-37
2021/08/20 00:44:34;;;;;;;8.50;6.57;;;20.70;60.80;;;;;;5056100;28;20112;-37
2021/08/20 00:47:01;;;;;;;10.68;7.50;;;20.80;60.90;;;;;;5056124;28;20127;-36
2021/08/20 00:49:26;;;;;;;8.23;6.35;;;20.80;61.00;;;;;;5056191;28;20439;-36
2021/08/20 00:51:53;;;;;;;8.55;7.03;;;20.70;61.00;;;;;;5055837;28;20120;-36
2021/08/20 00:54:20;;;;;;;8.02;5.78;;;20.70;60.90;;;;;;5056216;28;20409;-37
2021/08/20 00:56:46;;;;;;;7.75;6.93;;;20.70;61.00;;;;;;5055960;28;20417;-37
2021/08/20 00:59:13;;;;;;;9.98;6.95;;;20.70;61.00;;;;;;5056233;28;20465;-36
2021/08/20 01:01:39;;;;;;;7.78;6.25;;;20.70;61.10;;;;;;5056027;28;20041;-37
2021/08/20 01:04:08;;;;;;;7.30;6.25;;;20.70;61.20;;;;;;5055785;28;20082;-36
2021/08/20 01:06:37;;;;;;;7.32;6.57;;;20.70;61.40;;;;;;5056011;28;20302;-37
2021/08/20 01:09:04;;;;;;;8.38;6.97;;;20.70;61.80;;;;;;5055421;28;20440;-37
2021/08/20 01:11:30;;;;;;;10.30;5.97;;;20.70;61.70;;;;;;5056052;28;20037;-36
2021/08/20 01:13:56;;;;;;;7.72;6.93;;;20.70;61.80;;;;;;5057489;28;20032;-36
2021/08/20 01:16:21;;;;;;;7.00;5.25;;;20.70;62.00;;;;;;5059610;28;20567;-36
2021/08/20 01:18:47;;;;;;;7.75;6.80;;;20.70;61.90;;;;;;5059746;28;20021;-36
2021/08/20 01:21:19;;;;;;;8.80;6.93;;;20.70;62.00;;;;;;5060334;28;20036;-38
2021/08/20 01:23:49;;;;;;;8.27;6.70;;;20.70;62.10;;;;;;5059570;28;20076;-36
2021/08/20 01:26:15;;;;;;;;;;;20.60;62.10;;;;;;5059898;28;20064;-36
2021/08/20 01:28:42;;;;;;;8.98;5.95;;;20.60;62.00;;;;;;5059720;28;20336;-36
2021/08/20 01:31:10;;;;;;;8.48;7.10;;;20.60;62.30;;;;;;5060002;28;20086;-36
2021/08/20 01:33:36;;;;;;;7.45;6.70;;;20.60;62.40;;;;;;5059717;28;20119;-36
2021/08/20 01:36:02;;;;;;;7.43;5.97;;;20.60;62.20;;;;;;5059378;28;20029;-37
2021/08/20 01:38:28;;;;;;;9.90;6.88;;;20.60;62.20;;;;;;5059569;28;20037;-36
2021/08/20 01:40:55;;;;;;;9.20;6.68;;;20.60;62.30;;;;;;5059723;28;20087;-37
2021/08/20 01:43:21;;;;;;;8.60;6.32;;;20.60;62.20;;;;;;5059229;28;20184;-36
2021/08/20 01:45:48;;;;;;;7.78;6.78;;;20.60;62.70;;;;;;5059304;28;20112;-36
2021/08/20 01:48:13;;;;;;;8.30;6.57;;;20.60;62.10;;;;;;5059579;28;20044;-36
2021/08/20 01:50:43;;;;;;;12.30;7.65;;;20.50;62.10;;;;;;5059484;28;20025;-37
2021/08/20 01:53:17;;;;;;;11.55;7.78;;;20.60;62.00;;;;;;5059400;28;20512;-36
2021/08/20 01:55:44;;;;;;;9.27;6.60;;;20.60;62.00;;;;;;5059378;28;20025;-37
2021/08/20 01:58:10;;;;;;;9.35;5.85;;;20.50;61.70;;;;;;5059071;28;20033;-36
2021/08/20 02:00:37;;;;;;;8.18;6.60;;;20.50;61.70;;;;;;5059282;28;20036;-36
2021/08/20 02:03:03;;;;;;;8.13;6.63;;;20.50;61.80;;;;;;5059164;28;20429;-37
2021/08/20 02:05:28;;;;;;;10.93;7.50;;;20.50;61.90;;;;;;5059209;28;20029;-36
2021/08/20 02:07:54;;;;;;;11.25;8.00;;;20.50;62.10;;;;;;5058886;28;20040;-36
2021/08/20 02:10:20;;;;;;;8.77;7.85;;;20.50;62.10;;;;;;5059063;28;20032;-37
2021/08/20 02:12:45;;;;;;;9.52;7.57;;;20.40;62.20;;;;;;5058974;28;20037;-37
2021/08/20 02:15:11;;;;;;;11.18;8.07;;;20.50;62.50;;;;;;5058383;28;20025;-36
2021/08/20 02:17:37;;;;;;;9.60;6.15;;;20.40;62.50;;;;;;5058945;28;20075;-36
2021/08/20 02:20:04;;;;;;;7.90;6.88;;;20.40;62.70;;;;;;5059105;28;20404;-37
2021/08/20 02:22:29;;;;;;;8.98;7.78;;;20.40;62.80;;;;;;5058834;28;20033;-36
2021/08/20 02:24:55;;;;;;;8.43;6.70;;;20.40;63.00;;;;;;5058438;28;20039;-37
2021/08/20 02:27:22;;;;;;;9.35;7.03;;;20.30;62.70;;;;;;5058756;28;20036;-36
2021/08/20 02:29:48;;;;;;;10.02;7.20;;;20.30;62.80;;;;;;5058737;28;20033;-36
2021/08/20 02:32:13;;;;;;;9.45;7.53;;;20.30;63.00;;;;;;5058435;28;20032;-36
2021/08/20 02:34:39;;;;;;;9.80;7.10;;;20.30;63.00;;;;;;5058167;28;20033;-37
2021/08/20 02:37:05;;;;;;;11.98;6.63;;;20.20;63.20;;;;;;5058362;28;20036;-36
2021/08/20 02:39:30;;;;;;;9.45;6.30;;;20.20;63.20;;;;;;5058757;28;20029;-36
2021/08/20 02:41:56;;;;;;;8.98;7.45;;;20.20;63.20;;;;;;5058494;28;20037;-36
2021/08/20 02:44:22;;;;;;;9.27;7.53;;;20.20;63.40;;;;;;5058348;28;20291;-36
2021/08/20 02:46:48;;;;;;;7.78;6.80;;;20.20;63.50;;;;;;5058172;28;20037;-36
2021/08/20 02:49:13;;;;;;;10.95;7.72;;;20.20;63.70;;;;;;5058090;28;20425;-37
2021/08/20 02:51:39;;;;;;;10.75;9.52;;;20.10;63.60;;;;;;5058376;28;20025;-37
2021/08/20 02:54:05;;;;;;;8.88;6.85;;;20.10;63.70;;;;;;5058329;28;20032;-36
2021/08/20 02:56:30;;;;;;;8.55;6.75;;;20.10;63.80;;;;;;5057803;28;20025;-36
2021/08/20 02:58:56;;;;;;;8.07;6.97;;;20.10;64.40;;;;;;5057906;28;20474;-37
2021/08/20 03:01:22;;;;;;;9.45;7.65;;;20.10;63.90;;;;;;5057845;28;20056;-36
2021/08/20 03:03:48;;;;;;;9.98;8.05;;;20.10;63.90;;;;;;5057752;28;20029;-36
2021/08/20 03:06:15;;;;;;;9.98;6.90;;;20.10;64.00;;;;;;5058063;28;20104;-36
2021/08/20 03:08:40;;;;;;;9.15;7.65;;;20.00;64.10;;;;;;5057927;28;20037;-36
2021/08/20 03:11:06;;;;;;;14.20;6.95;;;20.00;64.40;;;;;;5058030;28;20029;-36
2021/08/20 03:13:31;;;;;;;12.98;8.80;;;20.00;64.40;;;;;;5057609;28;20425;-36
2021/08/20 03:15:57;;;;;;;11.13;8.38;;;20.00;64.40;;;;;;5057556;28;20441;-36
2021/08/20 03:18:23;;;;;;;11.32;9.10;;;20.00;64.70;;;;;;5057792;28;20029;-37
2021/08/20 03:20:49;;;;;;;10.52;9.43;;;20.00;64.40;;;;;;5057930;28;20409;-36
2021/08/20 03:23:15;;;;;;;10.65;8.48;;;19.90;64.40;;;;;;5057717;28;20063;-36
2021/08/20 03:25:40;;;;;;;11.32;9.35;;;19.90;64.50;;;;;;5057263;28;20029;-36
2021/08/20 03:28:07;;;;;;;9.32;8.25;;;19.90;64.60;;;;;;5057227;28;20039;-36
2021/08/20 03:30:34;;;;;;;10.13;7.93;;;19.90;64.50;;;;;;5057445;28;20036;-36
2021/08/20 03:33:00;;;;;;;13.18;10.02;;;19.90;64.40;;;;;;5057250;28;20029;-36
2021/08/20 03:35:26;;;;;;;12.95;9.68;;;19.90;64.40;;;;;;5056987;28;20035;-36
2021/08/20 03:37:52;;;;;;;11.43;8.85;;;19.90;64.50;;;;;;5056644;28;20384;-36
2021/08/20 03:40:18;;;;;;;11.13;9.82;;;19.90;64.60;;;;;;5057456;28;20028;-36
2021/08/20 03:42:43;;;;;;;12.60;9.25;;;19.90;64.60;;;;;;5057122;28;20317;-37
2021/08/20 03:45:11;;;;;;;10.75;8.68;;;19.90;64.40;;;;;;5057340;28;20373;-37
2021/08/20 03:47:37;;;;;;;10.43;9.32;;;19.90;64.40;;;;;;5056808;28;20029;-36
2021/08/20 03:50:04;;;;;;;14.23;10.55;;;19.90;64.60;;;;;;5057316;28;20033;-36
2021/08/20 03:52:30;;;;;;;9.00;7.20;;;19.90;64.40;;;;;;5056809;28;20033;-36
2021/08/20 03:54:55;;;;;;;12.10;9.85;;;19.90;64.60;;;;;;5056920;28;20083;-36
2021/08/20 03:57:21;;;;;;;10.55;8.10;;;19.80;64.50;;;;;;5056643;28;20040;-36
2021/08/20 03:59:46;;;;;;;11.15;9.10;;;19.80;64.80;;;;;;5056901;28;20032;-37
2021/08/20 04:02:12;;;;;;;10.15;7.15;;;19.80;64.80;;;;;;5056795;28;20052;-36
2021/08/20 04:04:38;;;;;;;8.73;7.75;;;19.90;64.90;;;;;;5056572;28;20029;-37
2021/08/20 04:07:04;;;;;;;12.13;8.90;;;19.90;64.90;;;;;;5056315;28;20041;-36
2021/08/20 04:09:29;;;;;;;11.80;8.15;;;19.90;64.80;;;;;;5056405;28;20040;-36
2021/08/20 04:11:55;;;;;;;10.88;9.30;;;19.90;64.90;;;;;;5056132;28;20036;-37
2021/08/20 04:14:21;;;;;;;12.57;8.80;;;19.90;65.00;;;;;;5056556;28;20103;-36
2021/08/20 04:16:46;;;;;;;10.38;8.50;;;19.90;65.00;;;;;;5056158;28;20049;-36
2021/08/20 04:19:12;;;;;;;11.82;7.90;;;19.90;65.10;;;;;;5056512;28;20065;-36
2021/08/20 04:21:38;;;;;;;12.40;9.38;;;20.00;65.70;;;;;;5056203;28;20440;-36
2021/08/20 04:24:05;;;;;;;13.15;7.97;;;20.00;64.90;;;;;;5056459;28;20099;-36
2021/08/20 04:26:31;;;;;;;13.10;9.35;;;20.00;64.80;;;;;;5056328;28;20056;-37
2021/08/20 04:28:57;;;;;;;15.82;9.88;;;20.00;64.80;;;;;;5056107;28;20049;-37
2021/08/20 04:31:22;;;;;;;9.85;8.75;;;20.00;65.00;;;;;;5055997;28;20468;-36
2021/08/20 04:33:48;;;;;;;12.85;9.00;;;20.10;65.40;;;;;;5055775;28;20368;-36
2021/08/20 04:36:14;;;;;;;9.32;8.35;;;20.10;65.10;;;;;;5056283;28;20112;-37
2021/08/20 04:38:40;;;;;;;11.10;9.70;;;20.10;65.10;;;;;;5056145;28;20029;-35
2021/08/20 04:41:08;;;;;;;10.73;8.43;;;20.10;64.90;;;;;;5056450;28;20359;-36
2021/08/20 04:43:36;;;;;;;11.23;9.60;;;20.10;64.80;;;;;;5055709;28;20045;-36
2021/08/20 04:46:02;;;;;;;10.30;8.57;;;20.10;64.80;;;;;;5056369;28;20028;-37
2021/08/20 04:48:28;;;;;;;12.18;10.93;;;20.10;64.90;;;;;;5055459;28;20075;-36
2021/08/20 04:50:54;;;;;;;10.85;9.75;;;20.10;64.90;;;;;;5056085;28;20076;-36
2021/08/20 04:53:20;;;;;;;10.70;9.57;;;20.20;64.90;;;;;;5055870;28;20433;-37
2021/08/20 04:55:46;;;;;;;10.63;8.50;;;20.20;64.70;;;;;;5056016;28;20405;-35
2021/08/20 04:58:12;;;;;;;13.63;11.25;;;20.30;64.70;;;;;;5055655;28;20086;-36
2021/08/20 05:00:40;;;;;;;13.13;10.27;;;20.30;64.80;;;;;;5055917;28;20033;-36
2021/08/20 05:03:06;;;;;;;11.18;9.98;;;20.30;64.50;;;;;;5055364;28;20041;-37
2021/08/20 05:05:31;;;;;;;11.40;8.95;;;20.40;64.70;;;;;;5055809;28;20033;-36
2021/08/20 05:07:58;;;;;;;13.05;9.60;;;20.40;64.70;;;;;;5055074;28;20037;-38
2021/08/20 05:10:24;;;;;;;12.30;9.23;;;20.40;64.50;;;;;;5055744;28;20025;-36
2021/08/20 05:12:50;;;;;;;13.43;10.38;;;20.40;64.20;;;;;;5055464;28;20033;-37
2021/08/20 05:15:15;;;;;;;10.68;9.00;;;20.40;64.40;;;;;;5055193;28;20083;-36
2021/08/20 05:17:41;;;;;;;10.00;8.95;;;20.40;64.40;;;;;;5055286;28;20033;-37
2021/08/20 05:20:07;;;;;;;11.40;9.02;;;20.40;64.30;;;;;;5055736;28;20060;-36
2021/08/20 05:22:45;;;;;;;10.05;8.98;;;20.40;64.40;;;;;;5055387;28;20079;-37
2021/08/20 05:25:11;;;;;;;13.45;11.10;;;20.50;64.40;;;;;;5055198;28;20029;-37
2021/08/20 05:27:36;;;;;;;10.63;8.73;;;20.50;63.90;;;;;;5054956;28;20040;-38
2021/08/20 05:30:02;;;;;;;10.73;9.38;;;20.60;63.90;;;;;;5055298;28;20032;-37
2021/08/20 05:32:28;;;;;;;14.60;10.38;;;20.60;64.10;;;;;;5055066;28;20029;-37
2021/08/20 05:34:54;;;;;;;11.60;8.40;;;20.70;63.90;;;;;;5055225;28;20033;-37
2021/08/20 05:37:20;;;;;;;12.07;8.75;;;20.70;63.90;;;;;;5054466;28;20026;-37
2021/08/20 05:39:46;;;;;;;12.50;9.20;;;20.80;63.80;;;;;;5054993;28;20047;-36
2021/08/20 05:42:11;;;;;;;16.60;9.55;;;20.80;63.90;;;;;;5055225;28;20029;-37
2021/08/20 05:44:37;;;;;;;11.20;9.05;;;20.80;63.70;;;;;;5055135;28;20309;-36
2021/08/20 05:47:03;;;;;;;10.40;8.43;;;20.90;63.50;;;;;;5055175;28;20294;-37
2021/08/20 05:49:28;;;;;;;11.77;9.55;;;20.90;63.40;;;;;;5055237;28;20436;-35
2021/08/20 05:51:54;;;;;;;11.60;9.88;;;21.00;63.50;;;;;;5055063;28;20025;-37
2021/08/20 05:54:20;;;;;;;11.30;7.97;;;21.00;63.50;;;;;;5054779;28;20390;-36
2021/08/20 05:56:46;;;;;;;9.52;8.52;;;21.00;63.50;;;;;;5055019;28;20037;-36
2021/08/20 05:59:12;;;;;;;12.32;9.90;;;21.10;63.70;;;;;;5055411;28;20043;-36
2021/08/20 06:01:38;;;;;;;12.30;10.25;;;21.20;63.90;;;;;;5058515;28;20029;-37
2021/08/20 06:04:04;;;;;;;10.68;9.57;;;21.30;63.50;;;;;;5058995;28;20033;-36
2021/08/20 06:06:30;;;;;;;11.02;8.93;;;21.40;63.00;;;;;;5058387;28;20033;-36
2021/08/20 06:08:56;;;;;;;12.25;10.63;;;21.50;63.00;;;;;;5058275;28;20031;-36
2021/08/20 06:11:21;;;;;;;11.73;8.45;;;21.60;62.90;;;;;;5058519;28;20060;-36
2021/08/20 06:13:49;;;;;;;10.88;9.02;;;21.70;63.00;;;;;;5058616;28;20075;-36
2021/08/20 06:16:16;;;;;;;11.25;10.05;;;21.70;62.70;;;;;;5058343;28;20127;-36
2021/08/20 06:18:42;;;;;;;12.40;9.20;;;21.80;62.90;;;;;;5058251;28;20025;-36
2021/08/20 06:21:08;;;;;;;12.13;8.82;;;21.80;62.50;;;;;;5058709;28;20112;-37
2021/08/20 06:23:34;;;;;;;10.82;9.50;;;21.90;62.60;;;;;;5058119;28;20037;-36
2021/08/20 06:25:59;;;;;;;11.68;9.45;;;22.00;62.60;;;;;;5058434;28;20111;-37
2021/08/20 06:28:25;;;;;;;13.13;10.07;;;22.10;62.60;;;;;;5057782;28;20115;-37
2021/08/20 06:30:51;;;;;;;11.95;9.82;;;22.10;62.50;;;;;;5058329;28;20029;-37
2021/08/20 06:33:17;;;;;;;11.23;9.32;;;22.20;62.20;;;;;;5058410;28;20337;-37
2021/08/20 06:35:43;;;;;;;10.05;8.45;;;22.30;61.90;;;;;;5058167;28;20021;-37
2021/08/20 06:38:09;;;;;;;10.27;9.20;;;22.40;62.10;;;;;;5058429;28;20056;-37
2021/08/20 06:40:35;;;;;;;11.18;10.02;;;22.50;61.80;;;;;;5058583;28;20025;-37
2021/08/20 06:43:01;;;;;;;9.32;8.43;;;22.50;61.20;;;;;;5058175;28;20065;-36
2021/08/20 06:45:27;;;;;;;10.52;8.48;;;22.60;61.10;;;;;;5058462;28;20049;-36
2021/08/20 06:47:53;;;;;;;11.88;8.18;;;22.70;60.90;;;;;;5058352;28;20439;-37
2021/08/20 06:50:19;;;;;;;13.30;8.70;;;22.70;60.50;;;;;;5057784;28;20032;-36
2021/08/20 06:52:45;;;;;;;9.50;8.15;;;22.70;60.00;;;;;;5057722;28;20057;-36
2021/08/20 06:55:11;;;;;;;10.38;8.68;;;22.80;60.00;;;;;;5058142;28;20070;-37
2021/08/20 06:57:36;;;;;;;12.38;7.55;;;22.80;59.70;;;;;;5057511;28;20409;-36
2021/08/20 07:00:03;;;;;;;9.30;8.20;;;22.80;59.70;;;;;;5058215;28;20029;-37
2021/08/20 07:02:29;;;;;;;8.45;7.45;;;22.80;59.70;;;;;;5057734;28;20037;-37
2021/08/20 07:04:55;;;;;;;10.15;7.72;;;22.80;60.00;;;;;;5057889;28;20112;-37
2021/08/20 07:07:21;;;;;;;13.20;8.57;;;22.80;59.50;;;;;;5057445;28;20060;-36
2021/08/20 07:09:46;;;;;;;16.27;8.55;;;22.90;59.30;;;;;;5057644;28;20028;-37
2021/08/20 07:12:12;;;;;;;12.30;7.68;;;22.90;59.20;;;;;;5057324;28;20029;-37
2021/08/20 07:14:37;;;;;;;11.50;8.55;;;22.90;59.30;;;;;;5057544;28;20025;-37
2021/08/20 07:17:03;;;;;;;11.77;9.70;;;23.00;59.20;;;;;;5057071;28;20049;-37
2021/08/20 07:19:29;;;;;;;14.57;9.23;;;23.00;59.00;;;;;;5057549;28;20079;-36
2021/08/20 07:21:55;;;;;;;12.18;8.60;;;23.00;59.10;;;;;;5057458;28;20036;-37
2021/08/20 07:24:20;;;;;;;11.13;9.32;;;23.10;59.30;;;;;;5057366;28;20033;-37
2021/08/20 07:26:46;;;;;;;10.00;7.55;;;23.10;58.70;;;;;;5057313;28;20028;-36
2021/08/20 07:29:12;;;;;;;10.90;8.48;;;23.20;59.00;;;;;;5057167;28;20037;-37
2021/08/20 07:31:38;;;;;;;9.13;8.13;;;23.20;58.70;;;;;;5057224;28;20033;-36
2021/08/20 07:34:04;;;;;;;9.43;7.35;;;23.30;58.30;;;;;;5057523;28;20037;-37
2021/08/20 07:36:30;;;;;;;10.88;8.18;;;23.40;58.20;;;;;;5057195;28;20040;-36
2021/08/20 07:38:56;;;;;;;10.27;7.63;;;23.40;58.10;;;;;;5056934;28;20029;-36
2021/08/20 07:41:21;;;;;;;9.60;8.60;;;23.40;58.00;;;;;;5056806;28;20040;-36
2021/08/20 07:43:47;;;;;;;9.23;7.35;;;23.50;57.70;;;;;;5056707;28;20329;-37
2021/08/20 07:46:13;;;;;;;9.57;8.30;;;23.60;57.50;;;;;;5057396;28;20075;-37
2021/08/20 07:48:38;;;;;;;9.93;8.43;;;23.60;57.40;;;;;;5056442;28;20120;-37
2021/08/20 07:51:04;;;;;;;8.93;7.57;;;23.60;57.40;;;;;;5057086;28;20108;-37
2021/08/20 07:53:29;;;;;;;10.40;8.13;;;23.70;57.70;;;;;;5056887;28;20033;-38
2021/08/20 07:55:56;;;;;;;11.50;7.80;;;23.70;57.30;;;;;;5051924;28;20045;-37
2021/08/20 07:58:22;;;;;;;11.38;8.40;;;23.80;57.10;;;;;;5056486;28;20416;-36
2021/08/20 08:00:47;;;;;;;9.95;7.72;;;23.80;56.50;;;;;;5056641;28;20025;-36
2021/08/20 08:03:13;;;;;;;10.25;8.23;;;23.90;56.70;;;;;;5056227;28;20124;-37
2021/08/20 08:05:39;;;;;;;12.07;8.52;;;23.90;56.80;;;;;;5055986;28;20028;-35
2021/08/20 08:08:04;;;;;;;9.18;8.02;;;23.90;56.50;;;;;;5056669;28;20443;-36
2021/08/20 08:10:30;;;;;;;8.82;7.05;;;24.00;56.80;;;;;;5056222;28;20025;-37
2021/08/20 08:12:56;;;;;;;11.45;8.90;;;24.00;56.00;;;;;;5056525;28;20029;-37
2021/08/20 08:15:21;;;;;;;10.73;8.55;;;24.00;55.80;;;;;;5055514;28;20425;-36
2021/08/20 08:17:47;;;;;;;12.32;7.50;;;24.00;55.70;;;;;;5055800;28;20037;-36
2021/08/20 08:20:15;;;;;;;9.15;8.23;;;24.00;55.70;;;;;;5056256;28;20033;-36
2021/08/20 08:22:41;;;;;;;10.95;7.78;;;24.10;55.40;;;;;;5055637;28;20057;-37
2021/08/20 08:25:08;;;;;;;9.35;8.20;;;24.10;55.30;;;;;;5055913;28;20434;-37
2021/08/20 08:27:55;;;;;;;9.10;6.93;;;24.00;55.20;;;;;;5055768;28;20417;-37
2021/08/20 08:30:22;;;;;;;11.73;7.93;;;24.00;54.90;;;;;;5056047;28;20036;-37
2021/08/20 08:32:48;;;;;;;11.23;7.22;;;24.00;55.40;;;;;;5056041;28;20168;-36
2021/08/20 08:35:14;;;;;;;9.30;7.18;;;24.00;54.80;;;;;;5055808;28;20033;-35
2021/08/20 08:37:40;;;;;;;8.90;6.20;;;24.00;55.20;;;;;;5055597;28;20037;-36
2021/08/20 08:40:07;;;;;;;11.43;7.10;;;24.00;55.00;;;;;;5055982;28;20039;-36
2021/08/20 08:42:32;;;;;;;9.80;8.27;;;24.10;55.10;;;;;;5055536;28;20048;-37
2021/08/20 08:44:58;;;;;;;8.68;7.32;;;24.10;54.90;;;;;;5056027;28;20036;-37
2021/08/20 08:47:25;;;;;;;8.52;6.78;;;24.10;55.00;;;;;;5055527;28;20372;-37
2021/08/20 08:49:54;;;;;;;8.98;6.60;;;24.10;54.90;;;;;;5056022;28;20037;-36
2021/08/20 08:52:20;;;;;;;9.43;6.72;;;24.10;54.40;;;;;;5055539;28;20115;-37
2021/08/20 08:54:46;;;;;;;9.45;7.22;;;24.10;54.80;;;;;;5055851;28;20064;-36
2021/08/20 08:57:13;;;;;;;11.00;6.55;;;24.10;54.60;;;;;;5055400;28;20040;-37
2021/08/20 08:59:39;;;;;;;9.48;8.25;;;24.20;54.60;;;;;;5055760;28;20111;-36
2021/08/20 09:02:25;;;;;;;10.63;6.50;;;24.30;54.60;;;;;;5055690;28;20488;-35
2021/08/20 09:05:05;;;;;;;10.32;9.20;;;24.30;54.10;;;;;;5056060;28;20107;-37
2021/08/20 09:07:34;;;;;;;7.85;7.10;;;24.40;54.00;;;;;;5055410;28;20444;-35
2021/08/20 09:10:10;;;;;;;13.52;6.82;;;24.40;54.60;;;;;;5055947;28;20041;-35
2021/08/20 09:12:36;;;;;;;8.75;6.95;;;24.50;54.40;;;;;;5054729;28;20086;-35
2021/08/20 09:15:02;;;;;;;7.63;6.65;;;24.60;53.80;;;;;;5055552;28;20031;-36
2021/08/20 09:17:35;;;;;;;8.32;6.85;;;24.70;53.90;;;;;;5055293;28;20032;-35
2021/08/20 09:20:34;;;;;;;7.20;5.85;;;24.80;53.80;;;;;;5055724;28;20112;-37
2021/08/20 09:23:17;;;;;;;6.72;5.82;;;24.90;53.90;;;;;;5054103;28;20044;-35
2021/08/20 09:25:45;;;;;;;7.43;6.30;;;25.00;53.20;;;;;;5055782;28;20033;-35
2021/08/20 09:28:27;;;;;;;13.48;6.50;;;25.00;53.10;;;;;;5055274;28;20384;-37
2021/08/20 09:30:56;;;;;;;7.88;5.68;;;25.10;53.10;;;;;;5055481;28;20032;-36
2021/08/20 09:33:23;;;;;;;8.25;6.57;;;25.10;52.60;;;;;;5048777;28;20037;-36
2021/08/20 09:36:01;;;;;;;7.93;6.05;;;25.20;52.70;;;;;;5058321;28;20013;-36
2021/08/20 09:38:29;;;;;;;8.60;7.30;;;25.20;52.20;;;;;;5058374;28;20021;-37
2021/08/20 09:40:58;;;;;;;7.13;5.65;;;25.20;52.40;;;;;;5059339;28;20063;-37
2021/08/20 09:43:31;;;;;;;7.20;5.53;;;25.30;52.50;;;;;;5058555;28;20037;-37
2021/08/20 09:46:00;;;;;;;8.75;5.65;;;25.40;52.60;;;;;;5058601;28;20056;-37
2021/08/20 09:48:46;;;;;;;9.97;6.47;;;25.40;52.70;;;;;;5058326;28;20045;-37
2021/08/20 09:51:33;;;;;;;10.50;6.35;;;25.50;52.50;;;;;;5059043;28;20717;-35
2021/08/20 09:54:21;;;;;;;7.30;6.15;;;25.50;52.60;;;;;;5058424;28;20041;-36
2021/08/20 09:56:47;;;;;;;7.70;6.60;;;25.60;51.80;;;;;;5057805;28;20063;-36
2021/08/20 09:59:14;;;;;;;6.85;5.72;;;25.60;51.80;;;;;;5058542;28;20325;-35
2021/08/20 10:01:41;;;;;;;7.60;5.88;;;25.60;51.80;;;;;;5057282;28;20040;-34
2021/08/20 10:04:12;;;;;;;7.50;5.53;;;25.60;51.70;;;;;;5057966;28;20028;-35
2021/08/20 10:06:41;;;;;;;10.15;6.07;;;25.60;51.50;;;;;;5057654;28;20508;-36
2021/08/20 10:09:07;;;;;;;6.25;5.65;;;25.60;51.60;;;;;;5058599;28;20032;-36
2021/08/20 10:11:40;;;;;;;8.15;6.20;;;25.60;51.60;;;;;;5058273;28;20122;-36
2021/08/20 10:14:07;;;;;;;7.25;5.45;;;25.70;51.80;;;;;;5058280;28;20325;-37
2021/08/20 10:16:37;;;;;;;7.25;6.20;;;25.70;51.90;;;;;;5058101;28;20056;-36
2021/08/20 10:19:06;;;;;;;7.40;6.32;;;25.70;51.60;;;;;;5058333;28;20108;-36
2021/08/20 10:21:34;;;;;;;8.38;5.68;;;25.70;51.60;;;;;;5058596;28;20222;-36
2021/08/20 10:24:00;;;;;;;7.05;6.38;;;25.70;51.80;;;;;;5058207;28;20036;-36
2021/08/20 10:26:27;;;;;;;7.45;5.25;;;25.80;51.40;;;;;;5058227;28;20105;-36
2021/08/20 10:28:55;;;;;;;6.40;5.78;;;25.80;51.80;;;;;;5057113;28;20040;-37
2021/08/20 10:31:22;;;;;;;10.40;6.15;;;25.90;51.70;;;;;;5058101;28;20029;-37
2021/08/20 10:33:48;;;;;;;6.75;5.65;;;25.90;51.80;;;;;;5058300;28;20029;-37
2021/08/20 10:36:14;;;;;;;9.00;6.68;;;25.90;51.70;;;;;;5058484;28;20032;-36
2021/08/20 10:38:39;;;;;;;6.05;5.40;;;25.90;51.40;;;;;;5057916;28;20028;-36
2021/08/20 10:41:13;;;;;;;6.85;5.63;;;26.00;51.60;;;;;;5057201;28;20079;-35
2021/08/20 10:43:59;;;;;;;5.32;4.43;;;26.00;51.70;;;;;;5057866;28;20457;-36
2021/08/20 10:46:34;;;;;;;7.18;6.05;;;26.20;51.10;;;;;;5057305;28;20119;-36
2021/08/20 10:49:29;;;;;;;7.38;5.60;;;26.20;51.60;;;;;;5057347;28;20029;-37
2021/08/20 10:51:59;;;;;;;6.25;5.30;;;26.30;51.50;;;;;;5057849;28;20048;-36
2021/08/20 10:54:31;;;;;;;6.65;5.18;;;26.40;51.00;;;;;;5057691;28;20032;-36
2021/08/20 10:57:01;;;;;;;7.03;5.32;;;26.50;50.40;;;;;;5057667;28;20067;-36
2021/08/20 10:59:38;;;;;;;6.85;5.18;;;26.60;50.10;;;;;;5057659;28;20025;-36
2021/08/20 11:02:19;;;;;;;8.20;4.97;;;26.70;49.90;;;;;;5057409;28;20044;-36
2021/08/20 11:05:14;;;;;;;6.15;4.57;;;26.80;49.00;;;;;;5057679;28;20067;-37
2021/08/20 11:07:42;;;;;;;8.85;4.28;;;26.90;48.80;;;;;;5057870;28;20033;-36
2021/08/20 11:10:08;;;;;;;5.70;4.10;;;27.00;48.60;;;;;;5057918;28;20122;-36
2021/08/20 11:12:52;;;;;;;6.43;4.18;;;27.10;48.60;;;;;;5057746;28;20032;-36
2021/08/20 11:15:18;;;;;;;6.90;4.95;;;27.20;48.20;;;;;;5057445;28;20308;-35
2021/08/20 11:17:59;;;;;;;4.78;4.18;;;27.30;48.30;;;;;;5057129;28;20028;-35
2021/08/20 11:20:33;;;;;;;6.03;4.35;;;27.30;46.90;;;;;;5057400;28;20033;-35
2021/08/20 11:23:05;;;;;;;6.07;4.35;;;27.30;47.00;;;;;;5057028;28;20033;-37
2021/08/20 11:25:38;;;;;;;6.90;4.25;;;27.30;47.00;;;;;;5057425;28;20120;-36
2021/08/20 11:28:14;;;;;;;7.75;4.20;;;27.30;46.50;;;;;;5057220;28;20325;-36
2021/08/20 11:30:40;;;;;;;5.45;4.47;;;27.30;47.00;;;;;;5057445;28;20037;-35
2021/08/20 11:33:14;;;;;;;6.18;4.10;;;27.20;46.80;;;;;;5057056;28;20029;-36
2021/08/20 11:35:42;;;;;;;5.72;3.75;;;27.20;46.90;;;;;;5057056;28;20031;-36
2021/08/20 11:38:08;;;;;;;5.75;4.38;;;27.20;46.80;;;;;;5056845;28;20037;-36
2021/08/20 11:40:49;;;;;;;6.10;3.95;;;27.30;47.00;;;;;;5057340;28;20044;-37
2021/08/20 11:43:15;;;;;;;5.32;4.82;;;27.30;47.10;;;;;;5056689;28;20040;-36
2021/08/20 11:45:40;;;;;;;6.65;4.25;;;27.40;46.60;;;;;;5057175;28;20029;-35
2021/08/20 11:48:06;;;;;;;8.02;4.30;;;27.50;46.50;;;;;;5056615;28;20037;-35
2021/08/20 11:50:34;;;;;;;6.38;3.88;;;27.60;46.00;;;;;;5056883;28;20044;-35
2021/08/20 11:53:00;;;;;;;8.13;3.80;;;27.80;46.20;;;;;;5056483;28;20033;-36
2021/08/20 11:55:26;;;;;;;4.25;3.78;;;28.00;46.30;;;;;;5056866;28;20029;-36
2021/08/20 11:57:52;;;;;;;6.97;3.90;;;28.10;46.10;;;;;;5055525;28;20274;-36
2021/08/20 12:00:18;;;;;;;4.57;3.47;;;28.30;45.00;;;;;;5056771;28;20033;-35
2021/08/20 12:02:44;;;;;;;5.38;3.92;;;28.40;45.40;;;;;;5056395;28;20433;-40
2021/08/20 12:05:19;;;;;;;7.35;4.20;;;28.60;45.10;;;;;;5056909;28;20111;-37
2021/08/20 12:07:46;;;;;;;6.22;4.32;;;28.70;45.10;;;;;;5056761;28;20373;-36
2021/08/20 12:10:16;;;;;;;4.55;3.63;;;28.90;44.80;;;;;;5056419;28;20041;-36
2021/08/20 12:12:44;;;;;;;7.03;4.15;;;29.00;44.40;;;;;;5056336;28;20147;-36
2021/08/20 12:15:12;;;;;;;4.65;4.07;;;29.10;44.10;;;;;;5056307;28;20078;-36
2021/08/20 12:17:38;;;;;;;4.65;4.18;;;29.20;44.40;;;;;;5055833;28;20044;-36
2021/08/20 12:20:24;;;;;;;6.53;4.05;;;29.30;44.30;;;;;;5056312;28;20044;-35
2021/08/20 12:22:50;;;;;;;6.57;3.80;;;29.40;44.00;;;;;;5055927;28;20441;-36
2021/08/20 12:25:24;;;;;;;5.20;4.50;;;29.50;43.80;;;;;;5056382;28;20094;-36
2021/08/20 12:27:51;;;;;;;7.75;3.88;;;29.60;44.00;;;;;;5056458;28;20086;-36
2021/08/20 12:30:23;;;;;;;3.95;3.65;;;29.70;43.30;;;;;;5056358;28;20021;-36
2021/08/20 12:32:57;;;;;;;6.57;4.07;;;29.70;43.70;;;;;;5055854;28;20051;-36
2021/08/20 12:35:24;;;;;;;5.10;4.32;;;29.80;43.40;;;;;;5056087;28;20025;-36
2021/08/20 12:38:10;;;;;;;7.40;3.78;;;30.00;43.70;;;;;;5055837;28;20072;-37
2021/08/20 12:40:44;;;;;;;6.05;3.80;;;30.10;43.50;;;;;;5055490;28;20100;-35
2021/08/20 12:43:22;;;;;;;5.88;3.83;;;30.20;42.60;;;;;;5055897;28;20037;-36
2021/08/20 12:46:10;;;;;;;4.30;3.42;;;30.30;42.70;;;;;;5056299;28;20081;-36